createdAt,value
2023-02-19T00:02:33.525Z,1.20
2023-02-19T00:05:35.886Z,3.20
2023-02-19T00:08:38.968Z,3.10
2023-02-19T00:11:41.911Z,2.88
2023-02-19T00:14:44.424Z,2.50
2023-02-19T00:17:46.730Z,2.60
2023-02-19T00:20:49.349Z,2.28
2023-02-19T00:24:03.983Z,2.45
2023-02-19T00:27:06.365Z,2.50
2023-02-19T00:30:09.838Z,2.63
2023-02-19T00:33:12.309Z,2.45
2023-02-19T00:36:15.399Z,3.00
2023-02-19T00:39:18.680Z,3.00
2023-02-19T00:42:21.225Z,4.40
2023-02-19T00:45:23.826Z,6.28
2023-02-19T00:48:26.528Z,4.97
2023-02-19T00:51:31.908Z,3.90
2023-02-19T00:54:34.345Z,4.25
2023-02-19T00:57:36.754Z,4.80
2023-02-19T01:00:39.277Z,3.30
2023-02-19T01:03:43.558Z,2.70
2023-02-19T01:06:46.098Z,2.60
2023-02-19T01:09:48.711Z,3.95
2023-02-19T01:12:51.161Z,4.43
2023-02-19T01:15:53.951Z,4.10
2023-02-19T01:18:57.554Z,3.47
2023-02-19T01:22:00.189Z,2.90
2023-02-19T01:25:02.607Z,3.15
2023-02-19T01:28:05.811Z,2.80
2023-02-19T01:31:13.542Z,3.13
2023-02-19T01:34:16.066Z,2.83
2023-02-19T01:37:18.417Z,3.30
2023-02-19T01:40:20.985Z,3.22
2023-02-19T01:43:24.173Z,2.97
2023-02-19T01:46:28.998Z,3.80
2023-02-19T01:49:39.910Z,3.20
2023-02-19T01:52:42.513Z,3.28
2023-02-19T01:55:48.239Z,3.28
2023-02-19T01:58:51.167Z,3.07
2023-02-19T02:01:53.572Z,3.10
2023-02-19T02:05:00.236Z,3.20
2023-02-19T02:08:22.116Z,3.25
2023-02-19T02:11:24.784Z,3.70
2023-02-19T02:14:30.690Z,3.10
2023-02-19T02:17:54.431Z,3.38
2023-02-19T02:21:21.313Z,3.97
2023-02-19T02:25:01.228Z,5.68
2023-02-19T02:28:36.598Z,4.47
2023-02-19T02:31:44.516Z,3.77
2023-02-19T02:34:59.341Z,3.83
2023-02-19T02:38:07.749Z,3.00
2023-02-19T02:41:11.889Z,3.03
2023-02-19T02:44:15.010Z,3.50
2023-02-19T02:47:37.753Z,3.15
2023-02-19T02:50:54.936Z,2.78
2023-02-19T02:54:19.880Z,2.47
2023-02-19T02:57:22.467Z,3.17
2023-02-19T03:00:51.074Z,3.97
2023-02-19T03:04:02.130Z,2.97
2023-02-19T03:07:09.646Z,3.53
2023-02-19T03:10:29.612Z,3.65
2023-02-19T03:13:55.011Z,3.28
2023-02-19T03:17:24.773Z,3.30
2023-02-19T03:20:30.161Z,10.23
2023-02-19T03:23:53.869Z,7.03
2023-02-19T03:26:58.566Z,4.67
2023-02-19T03:30:18.653Z,4.90
2023-02-19T03:33:26.493Z,6.47
2023-02-19T03:36:35.795Z,7.03
2023-02-19T03:39:44.518Z,3.42
2023-02-19T03:43:17.783Z,3.17
2023-02-19T03:46:42.228Z,1.85
2023-02-19T03:49:53.442Z,1.83
2023-02-19T03:53:11.757Z,1.15
2023-02-19T03:56:16.520Z,1.30
2023-02-19T03:59:24.098Z,0.90
2023-02-19T04:02:34.003Z,0.98
2023-02-19T04:05:44.551Z,0.80
2023-02-19T04:08:52.355Z,0.70
2023-02-19T04:11:55.390Z,0.90
2023-02-19T04:15:04.255Z,0.73
2023-02-19T04:18:11.432Z,1.08
2023-02-19T04:21:15.286Z,0.95
2023-02-19T04:24:36.878Z,1.00
2023-02-19T04:27:40.210Z,0.98
2023-02-19T04:30:43.754Z,0.80
2023-02-19T04:33:47.355Z,0.85
2023-02-19T04:36:49.667Z,0.65
2023-02-19T04:39:52.043Z,0.77
2023-02-19T04:42:54.574Z,0.60
2023-02-19T04:46:01.374Z,0.70
2023-02-19T04:49:04.318Z,0.95
2023-02-19T04:52:06.763Z,0.68
2023-02-19T04:55:09.365Z,0.85
2023-02-19T04:58:11.773Z,0.70
2023-02-19T05:01:14.751Z,0.60
2023-02-19T05:04:17.354Z,0.50
2023-02-19T05:07:19.798Z,0.60
2023-02-19T05:10:22.394Z,0.60
2023-02-19T05:13:25.059Z,0.55
2023-02-19T05:16:27.621Z,0.40
2023-02-19T05:19:30.087Z,0.52
2023-02-19T05:22:32.880Z,0.57
2023-02-19T05:25:35.193Z,0.45
2023-02-19T05:28:37.932Z,0.63
2023-02-19T05:31:40.432Z,0.40
2023-02-19T05:34:42.934Z,0.88
2023-02-19T05:37:45.337Z,0.57
2023-02-19T05:40:48.263Z,0.60
2023-02-19T05:43:51.357Z,0.85
2023-02-19T05:46:53.713Z,2.15
2023-02-19T05:49:56.110Z,5.68
2023-02-19T05:53:02.615Z,3.03
2023-02-19T05:56:05.758Z,2.70
2023-02-19T05:59:22.809Z,2.47
2023-02-19T06:02:25.381Z,3.60
2023-02-19T06:05:27.734Z,3.58
2023-02-19T06:08:30.194Z,2.88
2023-02-19T06:11:32.901Z,2.80
2023-02-19T06:14:35.294Z,2.90
2023-02-19T06:17:37.622Z,3.40
2023-02-19T06:20:40.044Z,3.30
2023-02-19T06:23:43.668Z,3.25
2023-02-19T06:26:46.580Z,3.55
2023-02-19T06:29:48.958Z,3.20
2023-02-19T06:32:54.048Z,3.10
2023-02-19T06:35:59.485Z,3.30
2023-02-19T06:39:03.922Z,4.80
2023-02-19T06:42:06.390Z,5.23
2023-02-19T06:45:09.039Z,7.18
2023-02-19T06:48:11.552Z,7.20
2023-02-19T06:51:18.682Z,7.60
2023-02-19T06:54:21.142Z,8.60
2023-02-19T06:57:23.506Z,9.80
2023-02-19T07:00:25.905Z,11.35
2023-02-19T07:03:28.338Z,11.33
2023-02-19T07:06:31.553Z,6.80
2023-02-19T07:09:34.233Z,4.60
2023-02-19T07:12:36.658Z,1.33
2023-02-19T07:15:39.100Z,0.90
2023-02-19T07:18:41.529Z,0.80
2023-02-19T07:21:44.070Z,0.73
2023-02-19T07:24:47.974Z,0.80
2023-02-19T07:27:50.364Z,1.42
2023-02-19T07:30:52.935Z,2.50
2023-02-19T07:33:55.960Z,1.60
2023-02-19T07:36:58.342Z,2.35
2023-02-19T07:40:00.794Z,2.42
2023-02-19T07:43:03.771Z,1.50
2023-02-19T07:46:10.022Z,1.48
2023-02-19T07:49:12.484Z,1.42
2023-02-19T07:52:14.954Z,2.00
2023-02-19T07:55:17.400Z,2.20
2023-02-19T07:58:19.846Z,2.55
2023-02-19T08:01:42.672Z,1.85
2023-02-19T08:04:47.413Z,2.47
2023-02-19T08:07:49.725Z,3.75
2023-02-19T08:11:24.108Z,2.55
2023-02-19T08:14:27.552Z,2.53
2023-02-19T08:17:31.231Z,3.17
2023-02-19T08:20:34.026Z,4.95
2023-02-19T08:23:36.655Z,4.75
2023-02-19T08:26:39.050Z,7.40
2023-02-19T08:29:41.845Z,4.22
2023-02-19T08:32:44.283Z,7.07
2023-02-19T08:35:47.080Z,5.23
2023-02-19T08:38:49.605Z,5.97
2023-02-19T08:41:58.057Z,4.47
2023-02-19T08:45:00.504Z,1.00
2023-02-19T08:48:02.958Z,3.40
2023-02-19T08:51:08.643Z,2.95
2023-02-19T08:54:11.161Z,2.13
2023-02-19T08:57:13.491Z,5.95
2023-02-19T09:00:16.835Z,4.60
2023-02-19T09:03:19.362Z,1.67
2023-02-19T09:06:21.893Z,4.37
2023-02-19T09:09:24.365Z,2.22
2023-02-19T09:12:26.840Z,4.18
2023-02-19T09:15:30.214Z,3.63
2023-02-19T09:18:32.818Z,2.58
2023-02-19T09:21:35.361Z,1.98
2023-02-19T09:24:37.796Z,4.15
2023-02-19T09:27:40.210Z,1.98
2023-02-19T09:30:42.666Z,3.33
2023-02-19T09:33:47.001Z,2.17
2023-02-19T09:36:50.250Z,1.90
2023-02-19T09:39:53.174Z,1.38
2023-02-19T09:42:55.698Z,3.50
2023-02-19T09:46:10.006Z,1.53
2023-02-19T09:49:36.851Z,1.60
2023-02-19T09:52:47.732Z,2.47
2023-02-19T09:55:51.485Z,1.52
2023-02-19T09:58:58.426Z,2.90
2023-02-19T10:02:21.883Z,2.10
2023-02-19T10:05:26.281Z,2.55
2023-02-19T10:08:33.329Z,1.90
2023-02-19T10:11:36.245Z,2.72
2023-02-19T10:15:09.266Z,0.77
2023-02-19T10:18:11.714Z,1.53
2023-02-19T10:21:28.067Z,1.33
2023-02-19T10:24:31.213Z,1.10
2023-02-19T10:27:33.569Z,2.20
2023-02-19T10:30:37.449Z,1.23
2023-02-19T10:33:57.573Z,1.70
2023-02-19T10:37:00.253Z,1.10
2023-02-19T10:40:02.979Z,1.00
2023-02-19T10:43:05.940Z,2.33
2023-02-19T10:46:24.282Z,7.32
2023-02-19T10:49:34.151Z,6.87
2023-02-19T10:52:36.638Z,6.63
2023-02-19T10:55:40.772Z,4.60
2023-02-19T10:58:45.007Z,5.65
2023-02-19T11:02:02.494Z,3.10
2023-02-19T11:05:17.074Z,2.70
2023-02-19T11:08:24.190Z,3.20
2023-02-19T11:11:26.495Z,1.80
2023-02-19T11:14:31.354Z,2.30
2023-02-19T11:17:33.929Z,3.90
2023-02-19T11:20:36.475Z,3.70
2023-02-19T11:23:46.140Z,2.47
2023-02-19T11:26:48.954Z,1.30
2023-02-19T11:29:51.542Z,1.23
2023-02-19T11:32:54.272Z,3.88
2023-02-19T11:36:14.902Z,2.00
2023-02-19T11:39:17.651Z,2.65
2023-02-19T11:42:42.529Z,1.70
2023-02-19T11:45:53.619Z,2.10
2023-02-19T11:49:41.390Z,2.72
2023-02-19T11:53:22.780Z,1.67
2023-02-19T11:56:34.003Z,0.50
2023-02-19T11:59:45.134Z,1.70
2023-02-19T12:03:18.685Z,2.50
2023-02-19T12:06:21.057Z,1.77
2023-02-19T12:10:07.197Z,3.75
2023-02-19T12:13:26.916Z,2.97
2023-02-19T12:16:58.138Z,3.13
2023-02-19T12:20:23.076Z,2.92
2023-02-19T12:23:32.429Z,3.45
2023-02-19T12:26:59.314Z,3.80
2023-02-19T12:30:28.135Z,5.47
2023-02-19T12:33:39.398Z,5.30
2023-02-19T12:36:51.004Z,2.97
2023-02-19T12:40:14.796Z,2.58
2023-02-19T12:43:21.253Z,1.73
2023-02-19T12:46:49.246Z,0.85
2023-02-19T12:50:08.137Z,0.43
2023-02-19T12:53:15.170Z,1.08
2023-02-19T12:56:24.217Z,4.72
2023-02-19T12:59:26.494Z,0.20
2023-02-19T13:02:48.538Z,0.30
2023-02-19T13:06:09.366Z,0.80
2023-02-19T13:09:19.517Z,1.58
2023-02-19T13:12:27.713Z,1.77
2023-02-19T13:15:45.242Z,1.10
2023-02-19T13:18:58.579Z,0.40
2023-02-19T13:22:53.150Z,0.30
2023-02-19T13:26:09.601Z,1.50
2023-02-19T13:29:50.038Z,0.20
2023-02-19T13:32:59.057Z,0.20
2023-02-19T13:36:12.378Z,1.15
2023-02-19T13:39:17.038Z,0.30
2023-02-19T13:42:39.957Z,0.45
2023-02-19T13:45:46.137Z,0.25
2023-02-19T13:48:48.851Z,0.63
2023-02-19T13:51:53.990Z,0.30
2023-02-19T13:55:42.366Z,2.40
2023-02-19T13:58:57.782Z,0.45
2023-02-19T14:02:02.873Z,0.20
2023-02-19T14:05:10.610Z,0.33
2023-02-19T14:08:13.172Z,0.22
2023-02-19T14:11:16.944Z,0.25
2023-02-19T14:14:35.233Z,0.50
2023-02-19T14:17:43.159Z,0.10
2023-02-19T14:20:45.997Z,0.20
2023-02-19T14:23:58.846Z,0.28
2023-02-19T14:27:01.511Z,0.50
2023-02-19T14:30:05.088Z,0.40
2023-02-19T14:33:11.348Z,0.40
2023-02-19T14:36:34.692Z,0.87
2023-02-19T14:39:39.089Z,1.10
2023-02-19T14:42:42.279Z,0.40
2023-02-19T14:45:52.643Z,0.60
2023-02-19T14:48:57.663Z,0.30
2023-02-19T14:52:04.421Z,1.92
2023-02-19T14:55:25.902Z,1.30
2023-02-19T14:58:32.099Z,0.50
2023-02-19T15:01:34.827Z,1.00
2023-02-19T15:04:37.984Z,2.25
2023-02-19T15:07:42.263Z,0.57
2023-02-19T15:10:45.106Z,0.30
2023-02-19T15:14:00.157Z,0.10
2023-02-19T15:17:05.302Z,0.40
2023-02-19T15:20:16.422Z,0.20
2023-02-19T15:23:24.019Z,1.38
2023-02-19T15:26:38.380Z,1.98
2023-02-19T15:29:50.871Z,1.20
2023-02-19T15:33:00.165Z,1.40
2023-02-19T15:36:07.142Z,2.30
2023-02-19T15:39:21.227Z,1.33
2023-02-19T15:42:28.455Z,1.00
2023-02-19T15:45:41.781Z,2.10
2023-02-19T15:48:54.482Z,1.90
2023-02-19T15:52:09.142Z,0.68
2023-02-19T15:55:33.518Z,1.00
2023-02-19T15:58:49.962Z,0.50
2023-02-19T16:01:53.054Z,2.83
2023-02-19T16:04:56.454Z,5.03
2023-02-19T16:08:19.304Z,1.48
2023-02-19T16:11:21.886Z,2.37
2023-02-19T16:14:34.929Z,1.13
2023-02-19T16:17:37.386Z,2.20
2023-02-19T16:20:40.399Z,1.42
2023-02-19T16:23:46.025Z,3.00
2023-02-19T16:26:48.474Z,2.42
2023-02-19T16:29:52.259Z,1.35
2023-02-19T16:33:32.944Z,1.20
2023-02-19T16:36:37.938Z,1.10
2023-02-19T16:39:40.395Z,2.78
2023-02-19T16:42:48.841Z,3.80
2023-02-19T16:45:51.278Z,1.38
2023-02-19T16:48:54.670Z,0.70
2023-02-19T16:51:59.646Z,1.92
2023-02-19T16:55:02.365Z,1.60
2023-02-19T16:58:04.762Z,1.83
2023-02-19T17:01:07.551Z,1.85
2023-02-19T17:04:13.237Z,2.53
2023-02-19T17:07:17.694Z,3.72
2023-02-19T17:10:23.494Z,3.50
2023-02-19T17:13:26.037Z,1.73
2023-02-19T17:16:40.393Z,0.73
2023-02-19T17:19:43.244Z,1.23
2023-02-19T17:22:45.832Z,1.52
2023-02-19T17:25:49.250Z,2.25
2023-02-19T17:28:51.898Z,0.90
2023-02-19T17:31:54.824Z,1.33
2023-02-19T17:34:57.253Z,1.37
2023-02-19T17:37:59.983Z,0.63
2023-02-19T17:41:04.199Z,1.33
2023-02-19T17:44:06.900Z,2.00
2023-02-19T17:47:09.537Z,1.00
2023-02-19T17:50:21.721Z,0.88
2023-02-19T17:53:25.439Z,0.70
2023-02-19T17:56:28.862Z,0.20
2023-02-19T17:59:32.007Z,0.70
2023-02-19T18:02:34.781Z,0.77
2023-02-19T18:05:37.284Z,0.47
2023-02-19T18:08:42.093Z,0.70
2023-02-19T18:11:46.375Z,0.77
2023-02-19T18:14:49.077Z,1.00
2023-02-19T18:17:51.518Z,0.50
2023-02-19T18:20:53.894Z,2.13
2023-02-19T18:23:57.783Z,2.08
2023-02-19T18:27:01.639Z,1.45
2023-02-19T18:30:05.028Z,1.38
2023-02-19T18:33:10.798Z,2.65
2023-02-19T18:36:13.594Z,0.73
2023-02-19T18:39:16.332Z,0.93
2023-02-19T18:42:19.200Z,0.47
2023-02-19T18:45:21.692Z,0.70
2023-02-19T18:48:24.537Z,0.70
2023-02-19T18:51:27.243Z,0.65
2023-02-19T18:54:31.487Z,1.13
2023-02-19T18:57:35.174Z,0.85
2023-02-19T19:00:38.306Z,0.68
2023-02-19T19:03:40.956Z,0.35
2023-02-19T19:06:43.687Z,0.90
2023-02-19T19:09:46.771Z,1.17
2023-02-19T19:12:50.443Z,1.08
2023-02-19T19:15:53.098Z,1.10
2023-02-19T19:18:57.124Z,1.50
2023-02-19T19:21:59.881Z,1.10
2023-02-19T19:25:02.808Z,1.67
2023-02-19T19:28:05.480Z,1.48
2023-02-19T19:31:08.184Z,2.15
2023-02-19T19:34:11.757Z,1.80
2023-02-19T19:37:14.507Z,1.83
2023-02-19T19:40:17.806Z,2.42
2023-02-19T19:43:20.196Z,1.75
2023-02-19T19:46:22.934Z,1.63
2023-02-19T19:49:25.588Z,1.42
2023-02-19T19:52:28.289Z,1.90
2023-02-19T19:55:30.974Z,2.30
2023-02-19T19:58:34.575Z,1.75
2023-02-19T20:01:37.889Z,1.77
2023-02-19T20:04:42.719Z,2.08
2023-02-19T20:07:45.910Z,2.20
2023-02-19T20:10:48.744Z,2.30
2023-02-19T20:13:51.745Z,1.88
2023-02-19T20:16:55.243Z,2.57
2023-02-19T20:19:57.628Z,1.70
2023-02-19T20:23:00.490Z,2.17
2023-02-19T20:26:07.599Z,1.67
2023-02-19T20:29:12.114Z,1.65
2023-02-19T20:32:19.880Z,2.03
2023-02-19T20:35:28.445Z,1.27
2023-02-19T20:38:31.076Z,1.83
2023-02-19T20:41:45.669Z,2.40
2023-02-19T20:44:48.117Z,1.70
2023-02-19T20:47:50.809Z,1.77
2023-02-19T20:50:59.526Z,2.38
2023-02-19T20:54:02.830Z,1.90
2023-02-19T20:57:05.774Z,1.48
2023-02-19T21:00:09.469Z,3.10
2023-02-19T21:03:12.494Z,2.03
2023-02-19T21:06:15.328Z,2.25
2023-02-19T21:09:21.854Z,2.30
2023-02-19T21:12:24.515Z,2.65
2023-02-19T21:15:27.335Z,1.80
2023-02-19T21:18:30.060Z,1.97
2023-02-19T21:21:34.495Z,2.00
2023-02-19T21:24:37.152Z,2.30
2023-02-19T21:27:40.775Z,2.53
2023-02-19T21:30:43.305Z,1.60
2023-02-19T21:33:45.790Z,2.20
2023-02-19T21:36:48.396Z,2.30
2023-02-19T21:39:51.149Z,1.60
2023-02-19T21:42:53.610Z,1.48
2023-02-19T21:45:56.908Z,1.20
2023-02-19T21:49:00.233Z,2.27
2023-02-19T21:52:02.925Z,1.88
2023-02-19T21:55:05.672Z,1.80
2023-02-19T21:58:08.354Z,2.10
2023-02-19T22:01:10.889Z,1.65
2023-02-19T22:04:15.886Z,1.88
2023-02-19T22:07:18.263Z,1.77
2023-02-19T22:10:26.589Z,1.70
2023-02-19T22:13:28.952Z,1.50
2023-02-19T22:16:32.632Z,1.30
2023-02-19T22:19:34.997Z,1.53
2023-02-19T22:22:37.651Z,1.70
2023-02-19T22:25:39.971Z,1.77
2023-02-19T22:28:42.384Z,1.25
2023-02-19T22:31:45.164Z,1.67
2023-02-19T22:34:47.675Z,1.40
2023-02-19T22:37:50.012Z,1.33
2023-02-19T22:40:52.430Z,1.50
2023-02-19T22:43:56.045Z,1.65
2023-02-19T22:46:58.399Z,1.60
2023-02-19T22:50:00.819Z,1.83
2023-02-19T22:53:03.213Z,1.95
2023-02-19T22:56:06.153Z,2.05
2023-02-19T22:59:08.536Z,1.90
2023-02-19T23:02:11.062Z,1.60
2023-02-19T23:05:13.646Z,2.35
2023-02-19T23:08:16.106Z,1.90
2023-02-19T23:11:27.770Z,2.00
2023-02-19T23:14:30.364Z,1.90
2023-02-19T23:17:33.247Z,2.08
2023-02-19T23:20:35.869Z,2.00
2023-02-19T23:23:42.153Z,2.05
2023-02-19T23:26:46.288Z,2.15
2023-02-19T23:29:48.757Z,2.30
2023-02-19T23:32:51.235Z,2.53
2023-02-19T23:35:53.746Z,2.10
2023-02-19T23:38:56.455Z,1.83
2023-02-19T23:41:58.928Z,1.77
2023-02-19T23:45:01.612Z,1.90
2023-02-19T23:48:04.090Z,2.28
2023-02-19T23:51:06.704Z,1.93
2023-02-19T23:54:09.413Z,2.20
2023-02-19T23:57:12.840Z,1.92
